sensor_id;sensor_type;location;lat;lon;timestamp;temperature;humidity
20610;DHT22;10463;52.378;9.688;2023-12-20T00:00:03;21.90;27.90
20610;DHT22;10463;52.378;9.688;2023-12-20T00:02:49;21.90;27.90
20610;DHT22;10463;52.378;9.688;2023-12-20T00:05:34;21.90;27.90
20610;DHT22;10463;52.378;9.688;2023-12-20T00:08:19;21.90;27.90
20610;DHT22;10463;52.378;9.688;2023-12-20T00:11:04;21.90;27.90
20610;DHT22;10463;52.378;9.688;2023-12-20T00:13:50;21.90;27.90
20610;DHT22;10463;52.378;9.688;2023-12-20T00:16:35;21.90;27.90
20610;DHT22;10463;52.378;9.688;2023-12-20T00:19:20;21.90;27.90
20610;DHT22;10463;52.378;9.688;2023-12-20T00:22:04;21.90;28.00
20610;DHT22;10463;52.378;9.688;2023-12-20T00:24:49;21.90;27.90
20610;DHT22;10463;52.378;9.688;2023-12-20T00:27:33;21.90;27.90
20610;DHT22;10463;52.378;9.688;2023-12-20T00:30:19;21.90;27.90
20610;DHT22;10463;52.378;9.688;2023-12-20T00:33:04;21.90;27.90
20610;DHT22;10463;52.378;9.688;2023-12-20T00:35:49;21.90;27.90
20610;DHT22;10463;52.378;9.688;2023-12-20T00:38:33;21.90;27.90
20610;DHT22;10463;52.378;9.688;2023-12-20T00:41:18;21.90;27.90
20610;DHT22;10463;52.378;9.688;2023-12-20T00:44:03;21.90;27.90
20610;DHT22;10463;52.378;9.688;2023-12-20T00:46:48;21.90;27.90
20610;DHT22;10463;52.378;9.688;2023-12-20T00:49:33;21.90;27.90
20610;DHT22;10463;52.378;9.688;2023-12-20T00:52:19;21.90;27.90
20610;DHT22;10463;52.378;9.688;2023-12-20T00:55:05;21.90;27.90
20610;DHT22;10463;52.378;9.688;2023-12-20T00:57:50;21.90;27.90
20610;DHT22;10463;52.378;9.688;2023-12-20T01:00:34;21.90;27.90
20610;DHT22;10463;52.378;9.688;2023-12-20T01:03:20;21.90;27.90
20610;DHT22;10463;52.378;9.688;2023-12-20T01:06:05;21.90;27.90
20610;DHT22;10463;52.378;9.688;2023-12-20T01:08:50;21.90;28.00
20610;DHT22;10463;52.378;9.688;2023-12-20T01:11:35;21.90;27.90
20610;DHT22;10463;52.378;9.688;2023-12-20T01:14:20;21.90;27.90
20610;DHT22;10463;52.378;9.688;2023-12-20T01:17:05;22.00;28.00
20610;DHT22;10463;52.378;9.688;2023-12-20T01:19:51;21.90;27.90
20610;DHT22;10463;52.378;9.688;2023-12-20T01:22:35;21.90;27.90
20610;DHT22;10463;52.378;9.688;2023-12-20T01:25:20;22.00;28.00
20610;DHT22;10463;52.378;9.688;2023-12-20T01:28:05;22.00;28.00
20610;DHT22;10463;52.378;9.688;2023-12-20T01:30:49;21.90;27.90
20610;DHT22;10463;52.378;9.688;2023-12-20T01:33:34;22.00;28.00
20610;DHT22;10463;52.378;9.688;2023-12-20T01:36:20;21.90;27.90
20610;DHT22;10463;52.378;9.688;2023-12-20T01:39:04;22.00;28.00
20610;DHT22;10463;52.378;9.688;2023-12-20T01:41:49;22.00;28.00
20610;DHT22;10463;52.378;9.688;2023-12-20T01:44:33;22.00;28.00
20610;DHT22;10463;52.378;9.688;2023-12-20T01:47:18;22.00;28.00
20610;DHT22;10463;52.378;9.688;2023-12-20T01:49:44;22.00;28.00
20610;DHT22;10463;52.378;9.688;2023-12-20T01:52:12;22.00;28.00
20610;DHT22;10463;52.378;9.688;2023-12-20T01:54:57;22.00;28.00
20610;DHT22;10463;52.378;9.688;2023-12-20T01:57:47;22.00;28.00
20610;DHT22;10463;52.378;9.688;2023-12-20T02:00:32;22.00;28.00
20610;DHT22;10463;52.378;9.688;2023-12-20T02:03:18;22.10;28.10
20610;DHT22;10463;52.378;9.688;2023-12-20T02:06:03;22.00;28.00
20610;DHT22;10463;52.378;9.688;2023-12-20T02:08:50;22.00;28.00
20610;DHT22;10463;52.378;9.688;2023-12-20T02:11:36;22.10;28.10
20610;DHT22;10463;52.378;9.688;2023-12-20T02:14:21;22.10;28.10
20610;DHT22;10463;52.378;9.688;2023-12-20T02:17:05;22.10;28.10
20610;DHT22;10463;52.378;9.688;2023-12-20T02:19:50;22.10;28.10
20610;DHT22;10463;52.378;9.688;2023-12-20T02:22:36;22.10;28.10
20610;DHT22;10463;52.378;9.688;2023-12-20T02:25:20;22.10;28.10
20610;DHT22;10463;52.378;9.688;2023-12-20T02:28:05;22.10;28.10
20610;DHT22;10463;52.378;9.688;2023-12-20T02:30:51;22.10;28.10
20610;DHT22;10463;52.378;9.688;2023-12-20T02:33:35;22.10;28.00
20610;DHT22;10463;52.378;9.688;2023-12-20T02:36:20;22.10;28.00
20610;DHT22;10463;52.378;9.688;2023-12-20T02:39:07;22.10;28.00
20610;DHT22;10463;52.378;9.688;2023-12-20T02:41:51;22.10;28.00
20610;DHT22;10463;52.378;9.688;2023-12-20T02:44:36;22.10;28.00
20610;DHT22;10463;52.378;9.688;2023-12-20T02:47:21;22.10;27.90
20610;DHT22;10463;52.378;9.688;2023-12-20T02:50:06;22.10;27.90
20610;DHT22;10463;52.378;9.688;2023-12-20T02:52:51;22.10;27.90
20610;DHT22;10463;52.378;9.688;2023-12-20T02:55:37;22.10;27.90
20610;DHT22;10463;52.378;9.688;2023-12-20T02:58:21;22.10;27.90
20610;DHT22;10463;52.378;9.688;2023-12-20T03:01:06;22.10;27.90
20610;DHT22;10463;52.378;9.688;2023-12-20T03:03:50;22.10;27.90
20610;DHT22;10463;52.378;9.688;2023-12-20T03:06:35;22.00;27.80
20610;DHT22;10463;52.378;9.688;2023-12-20T03:09:19;22.10;27.90
20610;DHT22;10463;52.378;9.688;2023-12-20T03:12:05;22.10;27.90
20610;DHT22;10463;52.378;9.688;2023-12-20T03:14:50;22.10;27.90
20610;DHT22;10463;52.378;9.688;2023-12-20T03:17:35;22.00;27.80
20610;DHT22;10463;52.378;9.688;2023-12-20T03:20:19;22.00;27.80
20610;DHT22;10463;52.378;9.688;2023-12-20T03:23:04;22.00;27.80
20610;DHT22;10463;52.378;9.688;2023-12-20T03:25:49;22.00;27.80
20610;DHT22;10463;52.378;9.688;2023-12-20T03:28:36;22.00;27.80
20610;DHT22;10463;52.378;9.688;2023-12-20T03:31:21;22.00;27.80
20610;DHT22;10463;52.378;9.688;2023-12-20T03:34:06;22.00;27.80
20610;DHT22;10463;52.378;9.688;2023-12-20T03:36:51;22.00;27.80
20610;DHT22;10463;52.378;9.688;2023-12-20T03:39:35;22.00;27.80
20610;DHT22;10463;52.378;9.688;2023-12-20T03:42:20;22.00;27.80
20610;DHT22;10463;52.378;9.688;2023-12-20T03:45:08;22.00;28.30
20610;DHT22;10463;52.378;9.688;2023-12-20T03:47:53;22.00;27.80
20610;DHT22;10463;52.378;9.688;2023-12-20T03:50:39;22.00;27.80
20610;DHT22;10463;52.378;9.688;2023-12-20T03:53:23;22.00;27.80
20610;DHT22;10463;52.378;9.688;2023-12-20T03:56:08;21.90;27.70
20610;DHT22;10463;52.378;9.688;2023-12-20T03:58:53;21.90;27.70
20610;DHT22;10463;52.378;9.688;2023-12-20T04:01:43;21.90;27.70
20610;DHT22;10463;52.378;9.688;2023-12-20T04:04:27;21.90;27.70
20610;DHT22;10463;52.378;9.688;2023-12-20T04:07:12;21.90;27.70
20610;DHT22;10463;52.378;9.688;2023-12-20T04:09:57;21.90;27.70
20610;DHT22;10463;52.378;9.688;2023-12-20T04:12:41;21.90;28.20
20610;DHT22;10463;52.378;9.688;2023-12-20T04:15:26;21.90;27.70
20610;DHT22;10463;52.378;9.688;2023-12-20T04:18:11;21.90;27.70
20610;DHT22;10463;52.378;9.688;2023-12-20T04:20:56;21.90;27.70
20610;DHT22;10463;52.378;9.688;2023-12-20T04:23:41;21.90;27.70
20610;DHT22;10463;52.378;9.688;2023-12-20T04:26:25;21.90;27.70
20610;DHT22;10463;52.378;9.688;2023-12-20T04:29:10;21.90;27.70
20610;DHT22;10463;52.378;9.688;2023-12-20T04:31:55;21.90;27.70
20610;DHT22;10463;52.378;9.688;2023-12-20T04:34:41;21.90;27.70
20610;DHT22;10463;52.378;9.688;2023-12-20T04:37:25;21.90;27.70
20610;DHT22;10463;52.378;9.688;2023-12-20T04:40:10;21.90;27.70
20610;DHT22;10463;52.378;9.688;2023-12-20T04:42:56;21.90;27.70
20610;DHT22;10463;52.378;9.688;2023-12-20T04:45:40;21.90;27.80
20610;DHT22;10463;52.378;9.688;2023-12-20T04:48:25;21.90;27.90
20610;DHT22;10463;52.378;9.688;2023-12-20T04:51:11;21.90;27.70
20610;DHT22;10463;52.378;9.688;2023-12-20T04:53:56;21.80;27.60
20610;DHT22;10463;52.378;9.688;2023-12-20T04:56:41;21.80;27.60
20610;DHT22;10463;52.378;9.688;2023-12-20T04:59:26;21.80;27.60
20610;DHT22;10463;52.378;9.688;2023-12-20T05:02:11;21.80;27.60
20610;DHT22;10463;52.378;9.688;2023-12-20T05:04:56;21.80;27.60
20610;DHT22;10463;52.378;9.688;2023-12-20T05:07:42;21.80;27.70
20610;DHT22;10463;52.378;9.688;2023-12-20T05:10:26;21.80;27.60
20610;DHT22;10463;52.378;9.688;2023-12-20T05:13:11;21.80;27.60
20610;DHT22;10463;52.378;9.688;2023-12-20T05:15:56;21.80;27.60
20610;DHT22;10463;52.378;9.688;2023-12-20T05:18:40;21.80;27.70
20610;DHT22;10463;52.378;9.688;2023-12-20T05:21:25;21.80;27.70
20610;DHT22;10463;52.378;9.688;2023-12-20T05:24:11;21.80;27.70
20610;DHT22;10463;52.378;9.688;2023-12-20T05:26:55;21.80;27.60
20610;DHT22;10463;52.378;9.688;2023-12-20T05:29:40;21.80;27.70
20610;DHT22;10463;52.378;9.688;2023-12-20T05:32:24;21.80;27.60
20610;DHT22;10463;52.378;9.688;2023-12-20T05:35:09;21.80;27.60
20610;DHT22;10463;52.378;9.688;2023-12-20T05:37:54;21.80;27.60
20610;DHT22;10463;52.378;9.688;2023-12-20T05:40:40;21.80;27.70
20610;DHT22;10463;52.378;9.688;2023-12-20T05:43:25;21.80;27.70
20610;DHT22;10463;52.378;9.688;2023-12-20T05:46:10;21.80;27.70
20610;DHT22;10463;52.378;9.688;2023-12-20T05:48:56;21.70;27.60
20610;DHT22;10463;52.378;9.688;2023-12-20T05:51:40;21.70;28.10
20610;DHT22;10463;52.378;9.688;2023-12-20T05:54:25;21.80;27.60
20610;DHT22;10463;52.378;9.688;2023-12-20T05:57:11;21.80;27.60
20610;DHT22;10463;52.378;9.688;2023-12-20T05:59:56;21.70;27.60
20610;DHT22;10463;52.378;9.688;2023-12-20T06:02:41;21.70;28.10
20610;DHT22;10463;52.378;9.688;2023-12-20T06:05:26;21.70;28.10
20610;DHT22;10463;52.378;9.688;2023-12-20T06:08:11;21.70;27.60
20610;DHT22;10463;52.378;9.688;2023-12-20T06:10:55;21.70;27.60
20610;DHT22;10463;52.378;9.688;2023-12-20T06:13:41;21.70;27.60
20610;DHT22;10463;52.378;9.688;2023-12-20T06:16:26;21.70;27.60
20610;DHT22;10463;52.378;9.688;2023-12-20T06:19:10;21.70;28.10
20610;DHT22;10463;52.378;9.688;2023-12-20T06:21:55;21.70;27.60
20610;DHT22;10463;52.378;9.688;2023-12-20T06:24:39;21.70;27.60
20610;DHT22;10463;52.378;9.688;2023-12-20T06:27:24;21.70;27.60
20610;DHT22;10463;52.378;9.688;2023-12-20T06:30:10;21.70;27.60
20610;DHT22;10463;52.378;9.688;2023-12-20T06:32:55;21.70;27.60
20610;DHT22;10463;52.378;9.688;2023-12-20T06:35:42;21.70;27.50
20610;DHT22;10463;52.378;9.688;2023-12-20T06:38:26;21.70;27.50
20610;DHT22;10463;52.378;9.688;2023-12-20T06:41:13;21.70;27.60
20610;DHT22;10463;52.378;9.688;2023-12-20T06:43:58;21.70;27.50
20610;DHT22;10463;52.378;9.688;2023-12-20T06:46:44;21.60;27.50
20610;DHT22;10463;52.378;9.688;2023-12-20T06:49:29;21.70;27.50
20610;DHT22;10463;52.378;9.688;2023-12-20T06:52:14;21.70;27.50
20610;DHT22;10463;52.378;9.688;2023-12-20T06:54:58;21.60;27.40
20610;DHT22;10463;52.378;9.688;2023-12-20T06:57:43;21.70;27.50
20610;DHT22;10463;52.378;9.688;2023-12-20T07:00:28;21.60;27.50
20610;DHT22;10463;52.378;9.688;2023-12-20T07:03:14;21.60;27.50
20610;DHT22;10463;52.378;9.688;2023-12-20T07:05:59;21.70;27.50
20610;DHT22;10463;52.378;9.688;2023-12-20T07:08:44;21.60;27.50
20610;DHT22;10463;52.378;9.688;2023-12-20T07:11:29;21.60;27.50
20610;DHT22;10463;52.378;9.688;2023-12-20T07:14:14;21.60;27.40
20610;DHT22;10463;52.378;9.688;2023-12-20T07:16:58;21.60;27.50
20610;DHT22;10463;52.378;9.688;2023-12-20T07:19:44;21.60;27.50
20610;DHT22;10463;52.378;9.688;2023-12-20T07:22:30;21.60;27.40
20610;DHT22;10463;52.378;9.688;2023-12-20T07:25:19;21.60;27.40
20610;DHT22;10463;52.378;9.688;2023-12-20T07:28:05;21.60;27.40
20610;DHT22;10463;52.378;9.688;2023-12-20T07:30:50;21.60;27.40
20610;DHT22;10463;52.378;9.688;2023-12-20T07:33:35;21.60;27.50
20610;DHT22;10463;52.378;9.688;2023-12-20T07:36:22;21.60;27.50
20610;DHT22;10463;52.378;9.688;2023-12-20T07:39:07;21.60;28.00
20610;DHT22;10463;52.378;9.688;2023-12-20T07:41:52;21.60;27.40
20610;DHT22;10463;52.378;9.688;2023-12-20T07:44:36;21.60;27.50
20610;DHT22;10463;52.378;9.688;2023-12-20T07:47:21;21.60;27.50
20610;DHT22;10463;52.378;9.688;2023-12-20T07:50:06;21.60;27.50
20610;DHT22;10463;52.378;9.688;2023-12-20T07:52:52;21.60;27.50
20610;DHT22;10463;52.378;9.688;2023-12-20T07:55:38;21.60;27.50
20610;DHT22;10463;52.378;9.688;2023-12-20T07:58:23;21.60;27.40
20610;DHT22;10463;52.378;9.688;2023-12-20T08:01:08;21.60;27.40
20610;DHT22;10463;52.378;9.688;2023-12-20T08:03:52;21.60;27.40
20610;DHT22;10463;52.378;9.688;2023-12-20T08:06:37;21.60;27.40
20610;DHT22;10463;52.378;9.688;2023-12-20T08:09:26;21.60;27.40
20610;DHT22;10463;52.378;9.688;2023-12-20T08:12:13;21.60;27.40
20610;DHT22;10463;52.378;9.688;2023-12-20T08:14:59;21.60;27.40
20610;DHT22;10463;52.378;9.688;2023-12-20T08:17:44;21.60;27.50
20610;DHT22;10463;52.378;9.688;2023-12-20T08:20:29;21.50;27.40
20610;DHT22;10463;52.378;9.688;2023-12-20T08:23:16;21.50;27.40
20610;DHT22;10463;52.378;9.688;2023-12-20T08:26:06;21.50;27.40
20610;DHT22;10463;52.378;9.688;2023-12-20T08:28:52;21.50;27.40
20610;DHT22;10463;52.378;9.688;2023-12-20T08:31:37;21.50;27.40
20610;DHT22;10463;52.378;9.688;2023-12-20T08:34:23;21.50;27.40
20610;DHT22;10463;52.378;9.688;2023-12-20T08:37:09;21.50;27.40
20610;DHT22;10463;52.378;9.688;2023-12-20T08:39:56;21.50;27.40
20610;DHT22;10463;52.378;9.688;2023-12-20T08:42:42;21.50;27.40
20610;DHT22;10463;52.378;9.688;2023-12-20T08:45:28;21.50;27.40
20610;DHT22;10463;52.378;9.688;2023-12-20T08:48:14;21.50;27.40
20610;DHT22;10463;52.378;9.688;2023-12-20T08:51:00;21.50;27.40
20610;DHT22;10463;52.378;9.688;2023-12-20T08:53:46;21.50;27.40
20610;DHT22;10463;52.378;9.688;2023-12-20T08:56:33;21.50;27.40
20610;DHT22;10463;52.378;9.688;2023-12-20T08:59:20;21.50;27.40
20610;DHT22;10463;52.378;9.688;2023-12-20T09:02:05;21.50;27.40
20610;DHT22;10463;52.378;9.688;2023-12-20T09:04:51;21.50;27.40
20610;DHT22;10463;52.378;9.688;2023-12-20T09:07:36;21.50;27.40
20610;DHT22;10463;52.378;9.688;2023-12-20T09:10:22;21.50;27.40
20610;DHT22;10463;52.378;9.688;2023-12-20T09:13:08;21.50;27.40
20610;DHT22;10463;52.378;9.688;2023-12-20T09:15:54;21.50;27.40
20610;DHT22;10463;52.378;9.688;2023-12-20T09:18:39;21.50;27.40
20610;DHT22;10463;52.378;9.688;2023-12-20T09:21:23;21.50;27.40
20610;DHT22;10463;52.378;9.688;2023-12-20T09:24:08;21.50;27.40
20610;DHT22;10463;52.378;9.688;2023-12-20T09:26:53;21.50;27.40
20610;DHT22;10463;52.378;9.688;2023-12-20T09:29:38;21.50;27.40
20610;DHT22;10463;52.378;9.688;2023-12-20T09:32:24;21.50;27.40
20610;DHT22;10463;52.378;9.688;2023-12-20T09:35:08;21.40;27.30
20610;DHT22;10463;52.378;9.688;2023-12-20T09:37:53;21.50;27.30
20610;DHT22;10463;52.378;9.688;2023-12-20T09:40:41;21.50;27.30
20610;DHT22;10463;52.378;9.688;2023-12-20T09:43:26;21.40;27.30
20610;DHT22;10463;52.378;9.688;2023-12-20T09:46:15;21.50;27.30
20610;DHT22;10463;52.378;9.688;2023-12-20T09:49:03;21.50;27.30
20610;DHT22;10463;52.378;9.688;2023-12-20T09:51:48;21.50;27.30
20610;DHT22;10463;52.378;9.688;2023-12-20T09:54:34;21.50;27.30
20610;DHT22;10463;52.378;9.688;2023-12-20T09:57:19;21.50;27.30
20610;DHT22;10463;52.378;9.688;2023-12-20T10:00:05;21.50;27.30
20610;DHT22;10463;52.378;9.688;2023-12-20T10:02:58;21.40;27.20
20610;DHT22;10463;52.378;9.688;2023-12-20T10:05:44;21.50;27.30
20610;DHT22;10463;52.378;9.688;2023-12-20T10:08:29;21.50;27.30
20610;DHT22;10463;52.378;9.688;2023-12-20T10:11:14;21.40;27.20
20610;DHT22;10463;52.378;9.688;2023-12-20T10:14:01;21.40;27.20
20610;DHT22;10463;52.378;9.688;2023-12-20T10:16:46;21.40;27.20
20610;DHT22;10463;52.378;9.688;2023-12-20T10:19:32;21.40;27.80
20610;DHT22;10463;52.378;9.688;2023-12-20T10:22:18;21.50;27.30
20610;DHT22;10463;52.378;9.688;2023-12-20T10:25:03;21.50;27.30
20610;DHT22;10463;52.378;9.688;2023-12-20T10:27:48;21.50;27.30
20610;DHT22;10463;52.378;9.688;2023-12-20T10:30:34;21.40;27.20
20610;DHT22;10463;52.378;9.688;2023-12-20T10:33:24;21.50;27.30
20610;DHT22;10463;52.378;9.688;2023-12-20T10:36:09;21.40;27.20
20610;DHT22;10463;52.378;9.688;2023-12-20T10:38:56;21.50;27.30
20610;DHT22;10463;52.378;9.688;2023-12-20T10:41:44;21.50;27.30
20610;DHT22;10463;52.378;9.688;2023-12-20T10:44:29;21.40;27.20
20610;DHT22;10463;52.378;9.688;2023-12-20T10:47:14;21.50;27.30
20610;DHT22;10463;52.378;9.688;2023-12-20T10:50:00;21.40;27.20
20610;DHT22;10463;52.378;9.688;2023-12-20T10:52:47;21.50;27.20
20610;DHT22;10463;52.378;9.688;2023-12-20T10:55:33;21.40;27.20
20610;DHT22;10463;52.378;9.688;2023-12-20T10:58:20;21.40;27.20
20610;DHT22;10463;52.378;9.688;2023-12-20T11:01:07;21.40;27.20
20610;DHT22;10463;52.378;9.688;2023-12-20T11:03:53;21.50;27.20
20610;DHT22;10463;52.378;9.688;2023-12-20T11:06:45;21.40;27.20
20610;DHT22;10463;52.378;9.688;2023-12-20T11:09:36;21.40;27.20
20610;DHT22;10463;52.378;9.688;2023-12-20T11:12:32;21.40;27.20
20610;DHT22;10463;52.378;9.688;2023-12-20T11:15:20;21.40;27.20
20610;DHT22;10463;52.378;9.688;2023-12-20T11:18:05;21.40;27.20
20610;DHT22;10463;52.378;9.688;2023-12-20T11:20:50;21.40;27.20
20610;DHT22;10463;52.378;9.688;2023-12-20T11:23:25;21.40;27.20
20610;DHT22;10463;52.378;9.688;2023-12-20T11:25:54;21.40;27.20
20610;DHT22;10463;52.378;9.688;2023-12-20T11:28:24;21.40;27.20
20610;DHT22;10463;52.378;9.688;2023-12-20T11:30:52;21.40;27.20
20610;DHT22;10463;52.378;9.688;2023-12-20T11:33:22;21.40;27.20
20610;DHT22;10463;52.378;9.688;2023-12-20T11:35:48;21.40;27.20
20610;DHT22;10463;52.378;9.688;2023-12-20T11:38:15;21.40;27.20
20610;DHT22;10463;52.378;9.688;2023-12-20T11:40:42;21.50;27.80
20610;DHT22;10463;52.378;9.688;2023-12-20T11:43:09;21.40;27.20
20610;DHT22;10463;52.378;9.688;2023-12-20T11:45:37;21.40;27.10
20610;DHT22;10463;52.378;9.688;2023-12-20T11:48:22;21.40;27.20
20610;DHT22;10463;52.378;9.688;2023-12-20T11:51:10;21.50;27.20
20610;DHT22;10463;52.378;9.688;2023-12-20T11:53:55;21.40;27.20
20610;DHT22;10463;52.378;9.688;2023-12-20T11:56:40;21.40;27.70
20610;DHT22;10463;52.378;9.688;2023-12-20T11:59:24;21.40;27.20
20610;DHT22;10463;52.378;9.688;2023-12-20T12:02:11;21.40;27.20
20610;DHT22;10463;52.378;9.688;2023-12-20T12:04:56;21.40;27.20
20610;DHT22;10463;52.378;9.688;2023-12-20T12:07:43;21.40;27.20
20610;DHT22;10463;52.378;9.688;2023-12-20T12:10:27;21.40;27.20
20610;DHT22;10463;52.378;9.688;2023-12-20T12:13:12;21.40;27.20
20610;DHT22;10463;52.378;9.688;2023-12-20T12:15:59;21.40;27.20
20610;DHT22;10463;52.378;9.688;2023-12-20T12:18:45;21.40;27.20
20610;DHT22;10463;52.378;9.688;2023-12-20T12:21:29;21.40;27.20
20610;DHT22;10463;52.378;9.688;2023-12-20T12:24:14;21.40;27.20
20610;DHT22;10463;52.378;9.688;2023-12-20T12:26:59;21.40;27.20
20610;DHT22;10463;52.378;9.688;2023-12-20T12:30:01;21.40;27.20
20610;DHT22;10463;52.378;9.688;2023-12-20T12:32:47;21.40;27.20
20610;DHT22;10463;52.378;9.688;2023-12-20T12:35:34;21.40;27.20
20610;DHT22;10463;52.378;9.688;2023-12-20T12:38:20;21.40;27.20
20610;DHT22;10463;52.378;9.688;2023-12-20T12:41:06;21.40;27.20
20610;DHT22;10463;52.378;9.688;2023-12-20T12:43:51;21.40;27.20
20610;DHT22;10463;52.378;9.688;2023-12-20T12:46:36;21.40;27.20
20610;DHT22;10463;52.378;9.688;2023-12-20T12:49:21;21.40;27.20
20610;DHT22;10463;52.378;9.688;2023-12-20T12:52:07;21.40;27.20
20610;DHT22;10463;52.378;9.688;2023-12-20T12:54:52;21.40;27.20
20610;DHT22;10463;52.378;9.688;2023-12-20T12:57:37;21.40;27.20
20610;DHT22;10463;52.378;9.688;2023-12-20T13:00:21;21.40;27.20
20610;DHT22;10463;52.378;9.688;2023-12-20T13:03:06;21.40;27.20
20610;DHT22;10463;52.378;9.688;2023-12-20T13:05:51;21.40;27.20
20610;DHT22;10463;52.378;9.688;2023-12-20T13:08:37;21.40;27.20
20610;DHT22;10463;52.378;9.688;2023-12-20T13:11:21;21.40;27.30
20610;DHT22;10463;52.378;9.688;2023-12-20T13:14:06;21.40;27.20
20610;DHT22;10463;52.378;9.688;2023-12-20T13:16:51;21.40;27.20
20610;DHT22;10463;52.378;9.688;2023-12-20T13:19:36;21.40;27.20
20610;DHT22;10463;52.378;9.688;2023-12-20T13:22:20;21.40;27.20
20610;DHT22;10463;52.378;9.688;2023-12-20T13:25:07;21.40;27.20
20610;DHT22;10463;52.378;9.688;2023-12-20T13:27:53;21.40;27.20
20610;DHT22;10463;52.378;9.688;2023-12-20T13:30:38;21.40;27.20
20610;DHT22;10463;52.378;9.688;2023-12-20T13:33:23;21.40;27.20
20610;DHT22;10463;52.378;9.688;2023-12-20T13:36:08;21.40;27.80
20610;DHT22;10463;52.378;9.688;2023-12-20T13:38:53;21.40;27.20
20610;DHT22;10463;52.378;9.688;2023-12-20T13:41:40;21.40;27.20
20610;DHT22;10463;52.378;9.688;2023-12-20T13:44:24;21.40;27.20
20610;DHT22;10463;52.378;9.688;2023-12-20T13:47:09;21.40;27.20
20610;DHT22;10463;52.378;9.688;2023-12-20T13:49:53;21.40;27.20
20610;DHT22;10463;52.378;9.688;2023-12-20T13:52:38;21.40;27.20
20610;DHT22;10463;52.378;9.688;2023-12-20T13:55:23;21.40;27.20
20610;DHT22;10463;52.378;9.688;2023-12-20T13:58:11;21.40;27.20
20610;DHT22;10463;52.378;9.688;2023-12-20T14:00:55;21.40;27.20
20610;DHT22;10463;52.378;9.688;2023-12-20T14:03:40;21.40;27.20
20610;DHT22;10463;52.378;9.688;2023-12-20T14:06:25;21.40;27.20
20610;DHT22;10463;52.378;9.688;2023-12-20T14:09:10;21.40;27.20
20610;DHT22;10463;52.378;9.688;2023-12-20T14:11:56;21.40;27.20
20610;DHT22;10463;52.378;9.688;2023-12-20T14:14:42;21.40;27.20
20610;DHT22;10463;52.378;9.688;2023-12-20T14:17:26;21.40;27.20
20610;DHT22;10463;52.378;9.688;2023-12-20T14:20:11;21.40;27.20
20610;DHT22;10463;52.378;9.688;2023-12-20T14:22:59;21.40;27.20
20610;DHT22;10463;52.378;9.688;2023-12-20T14:25:44;21.40;27.20
20610;DHT22;10463;52.378;9.688;2023-12-20T14:28:28;21.40;27.20
20610;DHT22;10463;52.378;9.688;2023-12-20T14:31:14;21.40;27.20
20610;DHT22;10463;52.378;9.688;2023-12-20T14:33:59;21.40;27.20
20610;DHT22;10463;52.378;9.688;2023-12-20T14:36:48;21.40;27.20
20610;DHT22;10463;52.378;9.688;2023-12-20T14:39:32;21.40;27.20
20610;DHT22;10463;52.378;9.688;2023-12-20T14:42:17;21.40;27.20
20610;DHT22;10463;52.378;9.688;2023-12-20T14:45:02;21.40;27.20
20610;DHT22;10463;52.378;9.688;2023-12-20T14:47:47;21.40;27.20
20610;DHT22;10463;52.378;9.688;2023-12-20T14:50:33;21.40;27.20
20610;DHT22;10463;52.378;9.688;2023-12-20T14:53:17;21.40;27.20
20610;DHT22;10463;52.378;9.688;2023-12-20T14:56:04;21.40;27.20
20610;DHT22;10463;52.378;9.688;2023-12-20T14:58:49;21.40;27.20
20610;DHT22;10463;52.378;9.688;2023-12-20T15:01:33;21.40;27.20
20610;DHT22;10463;52.378;9.688;2023-12-20T15:04:19;21.40;27.20
20610;DHT22;10463;52.378;9.688;2023-12-20T15:07:10;21.40;27.20
20610;DHT22;10463;52.378;9.688;2023-12-20T15:09:55;21.40;27.20
20610;DHT22;10463;52.378;9.688;2023-12-20T15:12:39;21.40;27.20
20610;DHT22;10463;52.378;9.688;2023-12-20T15:15:24;21.40;27.20
20610;DHT22;10463;52.378;9.688;2023-12-20T15:18:08;21.40;27.20
20610;DHT22;10463;52.378;9.688;2023-12-20T15:20:54;21.40;27.20
20610;DHT22;10463;52.378;9.688;2023-12-20T15:23:39;21.40;27.20
20610;DHT22;10463;52.378;9.688;2023-12-20T15:26:28;21.40;27.20
20610;DHT22;10463;52.378;9.688;2023-12-20T15:29:13;21.40;27.20
20610;DHT22;10463;52.378;9.688;2023-12-20T15:31:58;21.40;27.20
20610;DHT22;10463;52.378;9.688;2023-12-20T15:34:43;21.40;27.10
20610;DHT22;10463;52.378;9.688;2023-12-20T15:37:29;21.40;27.20
20610;DHT22;10463;52.378;9.688;2023-12-20T15:40:14;21.40;27.20
20610;DHT22;10463;52.378;9.688;2023-12-20T15:42:58;21.30;27.10
20610;DHT22;10463;52.378;9.688;2023-12-20T15:45:44;21.30;27.10
20610;DHT22;10463;52.378;9.688;2023-12-20T15:48:30;21.40;27.10
20610;DHT22;10463;52.378;9.688;2023-12-20T15:51:15;21.40;27.10
20610;DHT22;10463;52.378;9.688;2023-12-20T15:54:01;21.40;27.10
20610;DHT22;10463;52.378;9.688;2023-12-20T15:56:50;21.40;27.10
20610;DHT22;10463;52.378;9.688;2023-12-20T15:59:35;21.40;27.10
20610;DHT22;10463;52.378;9.688;2023-12-20T16:02:23;21.40;27.10
20610;DHT22;10463;52.378;9.688;2023-12-20T16:05:07;21.40;27.10
20610;DHT22;10463;52.378;9.688;2023-12-20T16:07:52;21.40;27.10
20610;DHT22;10463;52.378;9.688;2023-12-20T16:10:38;21.40;27.10
20610;DHT22;10463;52.378;9.688;2023-12-20T16:13:23;21.40;27.10
20610;DHT22;10463;52.378;9.688;2023-12-20T16:16:07;21.30;27.00
20610;DHT22;10463;52.378;9.688;2023-12-20T16:18:52;21.40;27.10
20610;DHT22;10463;52.378;9.688;2023-12-20T16:21:36;21.30;27.00
20610;DHT22;10463;52.378;9.688;2023-12-20T16:24:21;21.40;27.10
20610;DHT22;10463;52.378;9.688;2023-12-20T16:27:07;21.30;27.00
20610;DHT22;10463;52.378;9.688;2023-12-20T16:29:51;21.30;27.10
20610;DHT22;10463;52.378;9.688;2023-12-20T16:32:36;21.40;27.10
20610;DHT22;10463;52.378;9.688;2023-12-20T16:35:20;21.30;27.10
20610;DHT22;10463;52.378;9.688;2023-12-20T16:38:05;21.30;27.10
20610;DHT22;10463;52.378;9.688;2023-12-20T16:40:50;21.30;27.10
20610;DHT22;10463;52.378;9.688;2023-12-20T16:43:36;21.30;27.10
20610;DHT22;10463;52.378;9.688;2023-12-20T16:46:20;21.30;27.10
20610;DHT22;10463;52.378;9.688;2023-12-20T16:49:05;21.30;27.10
20610;DHT22;10463;52.378;9.688;2023-12-20T16:51:50;21.30;27.10
20610;DHT22;10463;52.378;9.688;2023-12-20T16:54:35;21.30;27.10
20610;DHT22;10463;52.378;9.688;2023-12-20T16:57:19;21.30;27.10
20610;DHT22;10463;52.378;9.688;2023-12-20T17:00:08;21.30;27.10
20610;DHT22;10463;52.378;9.688;2023-12-20T17:02:52;21.30;27.10
20610;DHT22;10463;52.378;9.688;2023-12-20T17:05:37;21.30;27.10
20610;DHT22;10463;52.378;9.688;2023-12-20T17:08:22;21.30;27.10
20610;DHT22;10463;52.378;9.688;2023-12-20T17:11:06;21.30;27.10
20610;DHT22;10463;52.378;9.688;2023-12-20T17:13:51;21.30;27.10
20610;DHT22;10463;52.378;9.688;2023-12-20T17:16:38;21.30;27.10
20610;DHT22;10463;52.378;9.688;2023-12-20T17:19:23;21.30;27.10